Time;durP1;ratioP1;P1;durP2;ratioP2;P2;SDS_P1;SDS_P2;PMS_P1;PMS_P2;Temp;Humidity;BMP_temperature;BMP_pressure;BME280_temperature;BME280_humidity;BME280_pressure;Samples;Min_cycle;Max_cycle;Signal;HPM_P1;HPM_P2
2023/08/02 00:02:11;;;;;;;7.72;4.45;;;15.60;99.90;;;;;;5073224;28;20476;-35
2023/08/02 00:04:37;;;;;;;6.63;3.75;;;15.60;99.90;;;;;;5077564;28;20093;-35
2023/08/02 00:07:03;;;;;;;8.88;3.95;;;15.60;99.90;;;;;;5073376;28;20032;-35
2023/08/02 00:09:32;;;;;;;8.35;4.18;;;15.60;99.90;;;;;;5068296;28;20064;-35
2023/08/02 00:11:57;;;;;;;7.80;3.83;;;15.60;99.90;;;;;;5076348;28;20036;-35
2023/08/02 00:14:24;;;;;;;5.30;3.95;;;15.50;99.90;;;;;;5076252;28;20043;-35
2023/08/02 00:16:49;;;;;;;4.97;3.53;;;15.60;99.90;;;;;;5068417;28;20461;-35
2023/08/02 00:19:15;;;;;;;8.70;3.95;;;15.50;99.90;;;;;;5076995;28;20047;-35
2023/08/02 00:21:42;;;;;;;5.80;4.00;;;15.50;99.90;;;;;;5082182;28;20036;-34
2023/08/02 00:24:07;;;;;;;6.80;4.35;;;15.50;99.90;;;;;;5078724;28;20032;-34
2023/08/02 00:26:33;;;;;;;5.88;3.95;;;15.50;99.90;;;;;;5071701;28;20539;-34
2023/08/02 00:28:59;;;;;;;8.13;3.70;;;15.50;99.90;;;;;;5081615;28;20400;-35
2023/08/02 00:31:24;;;;;;;7.15;4.05;;;15.50;99.90;;;;;;5085828;28;20055;-34
2023/08/02 00:33:50;;;;;;;11.10;4.35;;;15.50;99.90;;;;;;5072299;28;20051;-32
2023/08/02 00:36:16;;;;;;;9.43;4.53;;;15.50;99.90;;;;;;5054503;28;20082;-32
2023/08/02 00:38:42;;;;;;;11.40;5.05;;;15.50;99.90;;;;;;5071970;28;20481;-33
2023/08/02 00:41:08;;;;;;;9.73;4.63;;;15.50;99.90;;;;;;5072197;28;20041;-32
2023/08/02 00:43:48;;;;;;;12.57;4.28;;;15.50;99.90;;;;;;5071921;28;20677;-32
2023/08/02 00:46:16;;;;;;;9.13;4.47;;;15.50;99.90;;;;;;5070714;28;20067;-32
2023/08/02 00:48:42;;;;;;;10.35;4.68;;;15.50;99.90;;;;;;5070475;28;20092;-32
2023/08/02 00:51:15;;;;;;;6.78;4.47;;;15.50;99.90;;;;;;5071749;28;20076;-33
2023/08/02 00:53:44;;;;;;;11.65;5.18;;;15.50;99.90;;;;;;5071793;28;20044;-32
2023/08/02 00:56:10;;;;;;;6.53;4.30;;;15.50;99.90;;;;;;5072014;28;20447;-32
2023/08/02 00:58:36;;;;;;;8.05;4.25;;;15.50;99.90;;;;;;5070484;28;20040;-32
2023/08/02 01:01:07;;;;;;;10.30;4.32;;;15.50;99.90;;;;;;5071777;28;20043;-32
2023/08/02 01:03:41;;;;;;;12.27;4.95;;;15.50;99.90;;;;;;5079565;28;20043;-32
2023/08/02 01:06:12;;;;;;;8.50;4.70;;;15.50;99.90;;;;;;5079078;28;20028;-34
2023/08/02 01:08:42;;;;;;;10.48;4.90;;;15.50;99.90;;;;;;5083186;28;20063;-34
2023/08/02 01:11:15;;;;;;;8.20;5.00;;;15.50;99.90;;;;;;5065404;28;20123;-35
2023/08/02 01:13:48;;;;;;;7.82;5.13;;;15.50;99.90;;;;;;5069077;28;20075;-34
2023/08/02 01:16:16;;;;;;;11.35;5.30;;;15.50;99.90;;;;;;5078862;28;20036;-35
2023/08/02 01:18:42;;;;;;;10.48;5.32;;;15.50;99.90;;;;;;5078118;28;20091;-35
2023/08/02 01:21:08;;;;;;;9.02;4.68;;;15.50;99.90;;;;;;5085322;28;20036;-35
2023/08/02 01:23:34;;;;;;;13.18;5.13;;;15.50;99.90;;;;;;5078651;28;20542;-34
2023/08/02 01:26:01;;;;;;;10.55;5.45;;;15.50;99.90;;;;;;5073883;28;20447;-35
2023/08/02 01:28:30;;;;;;;9.68;5.03;;;15.50;99.90;;;;;;5070949;28;20032;-35
2023/08/02 01:30:56;;;;;;;10.73;5.32;;;15.50;99.90;;;;;;5068705;28;20119;-35
2023/08/02 01:33:23;;;;;;;10.93;5.43;;;15.50;99.90;;;;;;5078019;28;20062;-35
2023/08/02 01:35:50;;;;;;;9.88;5.45;;;15.50;99.90;;;;;;5069304;28;20482;-34
2023/08/02 01:38:15;;;;;;;9.50;5.45;;;15.50;99.90;;;;;;5073095;28;20170;-35
2023/08/02 01:40:41;;;;;;;9.38;5.00;;;15.50;99.90;;;;;;5067882;28;20556;-35
2023/08/02 01:43:07;;;;;;;14.85;5.53;;;15.50;99.90;;;;;;5071539;28;20040;-34
2023/08/02 01:45:32;;;;;;;10.38;5.60;;;15.50;99.90;;;;;;5078245;28;20042;-35
2023/08/02 01:47:58;;;;;;;10.10;5.10;;;15.50;99.90;;;;;;5075631;28;20032;-34
2023/08/02 01:50:24;;;;;;;9.65;5.22;;;15.50;99.90;;;;;;5070757;28;20032;-35
2023/08/02 01:52:49;;;;;;;10.55;4.80;;;15.50;99.90;;;;;;5083257;28;20489;-35
2023/08/02 01:55:20;;;;;;;12.07;6.20;;;15.50;99.90;;;;;;5076711;28;20116;-35
2023/08/02 01:57:46;;;;;;;10.00;5.85;;;15.50;99.90;;;;;;5071160;28;20074;-34
2023/08/02 02:00:12;;;;;;;10.45;5.05;;;15.40;99.90;;;;;;5073409;28;20036;-34
2023/08/02 02:02:39;;;;;;;10.45;5.38;;;15.40;99.90;;;;;;5075821;28;20036;-34
2023/08/02 02:05:05;;;;;;;10.95;5.85;;;15.40;99.90;;;;;;5068972;28;20501;-35
2023/08/02 02:07:31;;;;;;;10.10;5.68;;;15.40;99.90;;;;;;5075427;28;20041;-34
2023/08/02 02:09:56;;;;;;;10.50;6.15;;;15.40;99.90;;;;;;5068153;28;20093;-34
2023/08/02 02:12:22;;;;;;;11.93;5.70;;;15.40;99.90;;;;;;5076117;28;20035;-35
2023/08/02 02:14:47;;;;;;;6.88;4.90;;;15.40;99.90;;;;;;5078522;28;20041;-35
2023/08/02 02:17:13;;;;;;;15.63;6.45;;;15.40;99.90;;;;;;5071570;28;20076;-34
2023/08/02 02:19:39;;;;;;;9.70;5.47;;;15.30;99.90;;;;;;5079081;28;20032;-35
2023/08/02 02:22:05;;;;;;;14.65;6.25;;;15.40;99.90;;;;;;5063687;28;20040;-35
2023/08/02 02:24:31;;;;;;;13.48;6.13;;;15.30;99.90;;;;;;5066430;28;20097;-35
2023/08/02 02:26:57;;;;;;;12.13;6.22;;;15.30;99.90;;;;;;5112771;23;20036;-84
2023/08/02 02:29:23;;;;;;;14.63;5.95;;;15.30;99.90;;;;;;5040782;28;20502;-83
2023/08/02 02:31:48;;;;;;;15.68;5.88;;;15.30;99.90;;;;;;5057670;28;20028;-83
2023/08/02 02:34:14;;;;;;;12.35;6.00;;;15.30;99.90;;;;;;5060717;28;20040;-83
2023/08/02 02:36:39;;;;;;;15.02;6.22;;;15.30;99.90;;;;;;5057844;28;20109;-83
2023/08/02 02:39:05;;;;;;;10.20;5.10;;;15.30;99.90;;;;;;5055384;28;20380;-84
2023/08/02 02:41:31;;;;;;;15.88;6.25;;;15.20;99.90;;;;;;5041971;28;20140;-83
2023/08/02 02:43:56;;;;;;;16.15;5.72;;;15.20;99.90;;;;;;5049892;28;20064;-84
2023/08/02 02:46:22;;;;;;;12.93;5.38;;;15.20;99.90;;;;;;5054281;28;20044;-84
2023/08/02 02:48:48;;;;;;;13.40;5.63;;;15.10;99.90;;;;;;5057365;28;20094;-84
2023/08/02 02:51:13;;;;;;;12.68;6.05;;;15.10;99.90;;;;;;5056697;28;20638;-84
2023/08/02 02:53:39;;;;;;;15.45;6.60;;;15.10;99.90;;;;;;5043437;28;20033;-84
2023/08/02 02:56:06;;;;;;;16.17;7.03;;;15.10;99.90;;;;;;5039808;28;20131;-84
2023/08/02 02:58:32;;;;;;;15.32;6.78;;;15.00;99.90;;;;;;5062730;28;20119;-84
2023/08/02 03:00:58;;;;;;;12.90;7.30;;;15.00;99.90;;;;;;5033061;28;20094;-84
2023/08/02 03:03:24;;;;;;;12.90;6.93;;;15.00;99.90;;;;;;5045391;28;20399;-84
2023/08/02 03:05:49;;;;;;;11.82;6.80;;;14.90;99.90;;;;;;5092078;28;20072;-84
2023/08/02 03:08:15;;;;;;;16.50;6.60;;;14.90;99.90;;;;;;5060158;28;20036;-84
2023/08/02 03:10:41;;;;;;;11.38;6.30;;;14.90;99.90;;;;;;5050711;28;20094;-84
2023/08/02 03:13:06;;;;;;;14.15;6.70;;;14.90;99.90;;;;;;5079473;28;20434;-84
2023/08/02 03:15:32;;;;;;;8.93;6.45;;;14.80;99.90;;;;;;5060980;28;20028;-84
2023/08/02 03:17:58;;;;;;;10.82;7.10;;;14.90;99.90;;;;;;5060293;28;20048;-84
2023/08/02 03:20:24;;;;;;;10.20;6.45;;;14.80;99.90;;;;;;5055967;28;20048;-83
2023/08/02 03:22:49;;;;;;;12.90;7.18;;;14.80;99.90;;;;;;5051534;28;20044;-84
2023/08/02 03:25:15;;;;;;;14.20;7.53;;;14.70;99.90;;;;;;5055306;28;20037;-84
2023/08/02 03:27:40;;;;;;;12.10;6.68;;;14.70;99.90;;;;;;5041596;28;20093;-84
2023/08/02 03:30:07;;;;;;;10.15;6.78;;;14.70;99.90;;;;;;5039614;28;20037;-84
2023/08/02 03:32:32;;;;;;;9.48;6.75;;;14.70;99.90;;;;;;5040611;28;20060;-84
2023/08/02 03:34:58;;;;;;;12.90;7.43;;;14.60;99.90;;;;;;5039838;28;20522;-84
2023/08/02 03:37:23;;;;;;;12.82;7.25;;;14.60;99.90;;;;;;5055747;28;20056;-84
2023/08/02 03:39:49;;;;;;;9.60;7.30;;;14.60;99.90;;;;;;5079013;28;20044;-84
2023/08/02 03:42:15;;;;;;;9.75;6.78;;;14.60;99.90;;;;;;5055327;28;20113;-84
2023/08/02 03:44:40;;;;;;;12.07;7.85;;;14.60;99.90;;;;;;5071852;28;20414;-84
2023/08/02 03:47:06;;;;;;;14.27;7.13;;;14.60;99.90;;;;;;5029334;28;20045;-84
2023/08/02 03:49:32;;;;;;;13.77;7.38;;;14.60;99.90;;;;;;5067034;28;20195;-84
2023/08/02 03:51:57;;;;;;;10.68;7.78;;;14.60;99.90;;;;;;5048528;28;20041;-84
2023/08/02 03:54:23;;;;;;;9.70;6.88;;;14.50;99.90;;;;;;5043013;28;20036;-84
2023/08/02 03:56:49;;;;;;;12.73;7.78;;;14.60;99.90;;;;;;5054559;28;20311;-84
2023/08/02 03:59:14;;;;;;;12.00;7.95;;;14.40;99.90;;;;;;5065880;28;20028;-84
2023/08/02 04:01:40;;;;;;;13.13;8.07;;;14.50;99.90;;;;;;5068427;28;20058;-84
2023/08/02 04:04:05;;;;;;;15.63;8.13;;;14.50;99.90;;;;;;5064959;28;20032;-84
2023/08/02 04:06:31;;;;;;;13.43;8.02;;;14.50;99.90;;;;;;5040686;28;20464;-84
2023/08/02 04:08:57;;;;;;;13.15;8.15;;;14.50;99.90;;;;;;5057897;28;20453;-84
2023/08/02 04:11:22;;;;;;;11.35;8.07;;;14.40;99.90;;;;;;5036313;28;20048;-84
2023/08/02 04:13:50;;;;;;;14.45;7.95;;;14.40;99.90;;;;;;5046549;28;20048;-83
2023/08/02 04:16:15;;;;;;;14.05;7.57;;;14.40;99.90;;;;;;5058474;28;20060;-84
2023/08/02 04:18:42;;;;;;;11.00;7.55;;;14.40;99.90;;;;;;5050975;28;20572;-84
2023/08/02 04:21:08;;;;;;;18.10;8.25;;;14.40;99.90;;;;;;5055883;28;20033;-85
2023/08/02 04:23:33;;;;;;;11.73;7.68;;;14.40;99.90;;;;;;5057953;28;21354;-85
2023/08/02 04:25:59;;;;;;;12.98;7.80;;;14.40;99.90;;;;;;5052601;28;20037;-84
2023/08/02 04:28:25;;;;;;;13.25;7.43;;;14.40;99.90;;;;;;5075945;28;20040;-84
2023/08/02 04:30:51;;;;;;;12.30;7.65;;;14.50;99.90;;;;;;5053531;28;20132;-83
2023/08/02 04:33:17;;;;;;;9.82;6.80;;;14.50;99.90;;;;;;5049961;28;20052;-84
2023/08/02 04:35:43;;;;;;;16.05;8.18;;;14.50;99.90;;;;;;5040858;28;20091;-86
2023/08/02 04:38:08;;;;;;;11.45;7.97;;;14.50;99.90;;;;;;5065525;28;20029;-84
2023/08/02 04:40:40;;;;;;;10.80;7.30;;;14.50;99.90;;;;;;5096814;28;20029;-84
2023/08/02 04:43:05;;;;;;;16.27;7.82;;;14.50;99.90;;;;;;5055069;28;20036;-84
2023/08/02 04:45:31;;;;;;;12.25;7.28;;;14.50;99.90;;;;;;5049253;28;20401;-85
2023/08/02 04:47:57;;;;;;;10.13;6.50;;;14.50;99.90;;;;;;5036472;28;20048;-84
2023/08/02 04:50:23;;;;;;;9.93;6.72;;;14.50;99.90;;;;;;5051139;28;20036;-84
2023/08/02 04:52:48;;;;;;;12.55;7.28;;;14.50;99.90;;;;;;5073204;28;20041;-85
2023/08/02 04:55:15;;;;;;;10.82;7.63;;;14.60;99.90;;;;;;5053743;28;20660;-84
2023/08/02 04:57:40;;;;;;;11.45;6.93;;;14.60;99.90;;;;;;5068057;28;20698;-84
2023/08/02 05:00:07;;;;;;;12.82;7.07;;;14.60;99.90;;;;;;5049688;28;20025;-85
2023/08/02 05:02:36;;;;;;;10.10;6.78;;;14.70;99.90;;;;;;5083540;28;20029;-85
2023/08/02 05:05:05;;;;;;;13.13;7.00;;;14.70;99.90;;;;;;5082579;28;20414;-84
2023/08/02 05:07:34;;;;;;;8.45;6.35;;;14.70;99.90;;;;;;5045450;28;20033;-84
2023/08/02 05:10:04;;;;;;;9.88;6.82;;;14.80;99.90;;;;;;5059991;28;20043;-84
2023/08/02 05:12:38;;;;;;;14.23;7.03;;;14.80;99.90;;;;;;5071153;28;20033;-85
2023/08/02 05:15:04;;;;;;;13.80;6.82;;;14.90;99.90;;;;;;5089537;28;20044;-84
2023/08/02 05:17:30;;;;;;;11.15;6.85;;;14.90;99.90;;;;;;5062980;28;20034;-84
2023/08/02 05:19:56;;;;;;;10.80;6.43;;;14.90;99.90;;;;;;5045817;28;20388;-84
2023/08/02 05:22:22;;;;;;;10.25;6.35;;;15.00;99.90;;;;;;5048827;28;20048;-84
2023/08/02 05:24:50;;;;;;;11.30;6.90;;;15.00;99.90;;;;;;5056300;28;20033;-84
2023/08/02 05:27:15;;;;;;;9.50;6.60;;;15.00;99.90;;;;;;5047595;28;20028;-84
2023/08/02 05:29:41;;;;;;;9.52;6.63;;;15.10;99.90;;;;;;5054489;28;20051;-84
2023/08/02 05:32:07;;;;;;;13.23;7.00;;;15.10;99.90;;;;;;5055661;28;20028;-83
2023/08/02 05:34:32;;;;;;;10.75;6.40;;;15.10;99.90;;;;;;5039913;28;20041;-83
2023/08/02 05:36:58;;;;;;;11.90;6.80;;;15.20;99.90;;;;;;5087692;28;20033;-83
2023/08/02 05:39:24;;;;;;;8.80;6.97;;;15.20;99.90;;;;;;5044316;28;20040;-84
2023/08/02 05:41:50;;;;;;;12.02;6.93;;;15.20;99.90;;;;;;5052423;28;20086;-84
2023/08/02 05:44:15;;;;;;;12.60;6.70;;;15.30;99.90;;;;;;5061040;28;20774;-86
2023/08/02 05:46:46;;;;;;;14.30;6.80;;;15.30;99.90;;;;;;5069378;28;20044;-85
2023/08/02 05:49:12;;;;;;;11.13;7.28;;;15.40;99.90;;;;;;5041981;28;20041;-84
2023/08/02 05:51:39;;;;;;;15.07;6.97;;;15.50;99.90;;;;;;5058124;28;20055;-85
2023/08/02 05:54:04;;;;;;;8.80;6.05;;;15.60;99.90;;;;;;5064672;28;20060;-83
2023/08/02 05:56:30;;;;;;;10.85;5.72;;;15.60;99.90;;;;;;5060907;28;20031;-83
2023/08/02 05:58:55;;;;;;;10.57;5.65;;;15.70;99.90;;;;;;5038573;28;20112;-83
2023/08/02 06:01:21;;;;;;;10.15;5.43;;;15.80;99.90;;;;;;5052270;28;20048;-84
2023/08/02 06:03:47;;;;;;;8.88;5.93;;;15.80;99.90;;;;;;5045975;28;20033;-83
2023/08/02 06:06:13;;;;;;;8.55;5.05;;;15.90;99.90;;;;;;5047120;28;20513;-83
2023/08/02 06:08:40;;;;;;;12.57;6.07;;;15.90;99.90;;;;;;5036402;28;20541;-84
2023/08/02 06:11:06;;;;;;;13.73;5.68;;;16.00;99.90;;;;;;5069519;28;20082;-85
2023/08/02 06:13:31;;;;;;;10.82;5.03;;;16.00;99.90;;;;;;5055016;28;20037;-83
2023/08/02 06:15:57;;;;;;;14.27;5.82;;;16.10;99.90;;;;;;5026502;28;20069;-86
2023/08/02 06:18:23;;;;;;;15.20;5.25;;;16.20;99.90;;;;;;5031363;28;20052;-83
2023/08/02 06:20:49;;;;;;;10.35;5.10;;;16.20;99.90;;;;;;5066976;28;20780;-83
2023/08/02 06:23:17;;;;;;;9.55;5.20;;;16.30;99.90;;;;;;5030642;28;20048;-84
2023/08/02 06:25:43;;;;;;;10.40;5.40;;;16.30;99.90;;;;;;5038606;28;20051;-84
2023/08/02 06:28:09;;;;;;;7.43;4.85;;;16.30;99.90;;;;;;5061912;28;20036;-82
2023/08/02 06:30:35;;;;;;;9.25;5.18;;;16.30;99.90;;;;;;5041602;28;20036;-81
2023/08/02 06:33:03;;;;;;;10.10;5.05;;;16.30;99.90;;;;;;5042265;28;20115;-81
2023/08/02 06:35:29;;;;;;;8.75;4.65;;;16.30;99.90;;;;;;5043590;28;20040;-84
2023/08/02 06:37:55;;;;;;;12.15;5.28;;;16.30;99.90;;;;;;5046596;28;20033;-80
2023/08/02 06:40:20;;;;;;;9.20;4.65;;;16.30;99.90;;;;;;5078945;28;20488;-83
2023/08/02 06:42:46;;;;;;;9.70;4.13;;;16.40;99.90;;;;;;5057403;28;20041;-82
2023/08/02 06:45:12;;;;;;;8.95;4.78;;;16.40;99.90;;;;;;5030047;28;20037;-84
2023/08/02 06:47:38;;;;;;;8.35;3.92;;;16.40;99.90;;;;;;5037877;28;20108;-84
2023/08/02 06:50:04;;;;;;;7.50;4.15;;;16.40;99.90;;;;;;5063578;28;20073;-81
2023/08/02 06:52:30;;;;;;;7.93;4.10;;;16.40;99.90;;;;;;5068280;28;20075;-81
2023/08/02 06:54:56;;;;;;;6.78;4.30;;;16.40;99.90;;;;;;5038530;28;20048;-84
2023/08/02 06:57:23;;;;;;;9.27;4.75;;;16.40;99.90;;;;;;5080082;28;20029;-82
2023/08/02 06:59:55;;;;;;;9.30;4.05;;;16.40;99.90;;;;;;5058739;28;20037;-84
2023/08/02 07:02:21;;;;;;;11.55;5.03;;;16.40;99.90;;;;;;5022307;28;20048;-83
2023/08/02 07:04:47;;;;;;;9.60;4.13;;;16.40;99.90;;;;;;5037776;28;20037;-84
2023/08/02 07:07:15;;;;;;;9.43;4.55;;;16.30;99.90;;;;;;5045536;28;20044;-82
2023/08/02 07:09:41;;;;;;;7.47;3.53;;;16.30;99.90;;;;;;5063052;28;20079;-83
2023/08/02 07:12:07;;;;;;;6.45;4.03;;;16.30;99.90;;;;;;5046497;28;20388;-84
2023/08/02 07:14:33;;;;;;;7.60;3.85;;;16.40;99.90;;;;;;5023777;28;20495;-84
2023/08/02 07:16:58;;;;;;;8.07;4.55;;;16.40;99.90;;;;;;5027007;28;20037;-84
2023/08/02 07:19:24;;;;;;;7.43;4.30;;;16.50;99.90;;;;;;5028814;28;20024;-83
2023/08/02 07:21:50;;;;;;;9.00;4.18;;;16.50;99.90;;;;;;5048285;28;20138;-84
2023/08/02 07:24:16;;;;;;;7.35;4.32;;;16.50;99.90;;;;;;5026749;28;20812;-84
2023/08/02 07:26:41;;;;;;;12.77;4.63;;;16.50;99.90;;;;;;5079828;28;20044;-84
2023/08/02 07:29:09;;;;;;;10.55;5.05;;;16.50;99.90;;;;;;5034374;28;20037;-84
2023/08/02 07:31:35;;;;;;;10.05;4.75;;;16.40;99.90;;;;;;5044869;28;20037;-83
2023/08/02 07:34:01;;;;;;;6.90;4.28;;;16.40;99.90;;;;;;5047477;28;20039;-82
2023/08/02 07:36:27;;;;;;;8.20;4.10;;;16.40;99.90;;;;;;5055363;28;20034;-83
2023/08/02 07:38:53;;;;;;;8.23;4.18;;;16.30;99.90;;;;;;5047387;28;20039;-82
2023/08/02 07:41:18;;;;;;;7.65;4.25;;;16.30;99.90;;;;;;5042889;28;20037;-83
2023/08/02 07:43:44;;;;;;;8.68;4.45;;;16.20;99.90;;;;;;5046243;28;20725;-84
2023/08/02 07:46:21;;;;;;;9.18;4.65;;;16.20;99.90;;;;;;5048311;28;20042;-84
2023/08/02 07:48:47;;;;;;;9.05;4.78;;;16.10;99.90;;;;;;5038503;28;20041;-84
2023/08/02 07:51:13;;;;;;;7.40;4.60;;;16.00;99.90;;;;;;5042990;28;20053;-85
2023/08/02 07:53:38;;;;;;;7.03;4.85;;;16.00;99.90;;;;;;5047050;28;20033;-84
2023/08/02 07:56:23;;;;;;;7.82;4.57;;;15.90;99.90;;;;;;5047537;28;20094;-86
2023/08/02 07:59:15;;;;;;;9.90;5.80;;;15.90;99.90;;;;;;5044004;28;20414;-85
2023/08/02 08:01:42;;;;;;;10.63;4.50;;;15.90;99.90;;;;;;5027150;28;20069;-82
2023/08/02 08:04:08;;;;;;;8.63;4.70;;;15.80;99.90;;;;;;5068132;28;20060;-84
2023/08/02 08:06:33;;;;;;;6.68;5.07;;;15.80;99.90;;;;;;5067611;28;20048;-82
2023/08/02 08:08:59;;;;;;;8.82;4.90;;;15.80;99.90;;;;;;5057517;28;20041;-82
2023/08/02 08:11:29;;;;;;;6.60;5.05;;;15.80;99.90;;;;;;5056121;28;20605;-84
2023/08/02 08:13:55;;;;;;;9.45;5.43;;;15.80;99.90;;;;;;5059870;28;20160;-83
2023/08/02 08:16:21;;;;;;;10.48;5.40;;;15.80;99.90;;;;;;5058343;28;20037;-83
2023/08/02 08:18:47;;;;;;;6.28;4.70;;;15.90;99.90;;;;;;5039086;28;20036;-83
2023/08/02 08:21:12;;;;;;;6.28;3.65;;;16.00;99.90;;;;;;5037649;28;20033;-84
2023/08/02 08:23:40;;;;;;;6.97;4.70;;;15.90;99.90;;;;;;5052785;28;20047;-83
2023/08/02 09:10:07;;;;;;;7.25;4.95;;;16.40;99.90;;;;;;5598090;23;20054;-34
2023/08/02 09:12:44;;;;;;;8.57;5.07;;;16.40;99.90;;;;;;5055862;28;20046;-35
2023/08/02 09:18:01;;;;;;;6.95;5.53;;;16.40;99.90;;;;;;4978760;28;20514;-36
2023/08/02 09:20:52;;;;;;;8.95;5.72;;;16.60;99.90;;;;;;5047029;28;20399;-35
2023/08/02 09:23:23;;;;;;;13.05;5.80;;;16.70;99.90;;;;;;5017110;28;20457;-35
2023/08/02 09:25:49;;;;;;;9.98;6.43;;;16.70;99.90;;;;;;5037672;28;20046;-35
2023/08/02 09:28:15;;;;;;;9.25;6.05;;;16.70;99.90;;;;;;5053850;28;20113;-34
2023/08/02 09:30:41;;;;;;;8.07;5.55;;;16.70;99.90;;;;;;5050823;28;20084;-34
2023/08/02 09:33:08;;;;;;;8.77;6.32;;;16.80;99.90;;;;;;4986941;28;20030;-35
2023/08/02 09:35:47;;;;;;;9.60;6.22;;;16.70;99.90;;;;;;5053837;28;20425;-34
2023/08/02 09:38:14;;;;;;;7.10;6.20;;;16.70;99.90;;;;;;5048008;28;20647;-34
2023/08/02 09:40:41;;;;;;;8.50;6.28;;;16.70;99.90;;;;;;4970575;28;20099;-34
2023/08/02 09:43:11;;;;;;;11.65;6.78;;;16.60;99.90;;;;;;5052889;28;20466;-35
2023/08/02 09:45:37;;;;;;;7.43;6.00;;;16.50;99.90;;;;;;4987599;28;20129;-34
2023/08/02 09:48:03;;;;;;;8.73;5.85;;;16.40;99.90;;;;;;5056995;28;20109;-34
2023/08/02 09:50:31;;;;;;;8.48;6.50;;;16.40;99.90;;;;;;5051609;28;20039;-34
2023/08/02 09:52:57;;;;;;;9.20;6.35;;;16.40;99.90;;;;;;5055921;28;20060;-34
2023/08/02 09:55:26;;;;;;;7.68;6.45;;;16.40;99.90;;;;;;5031217;28;20513;-34
2023/08/02 09:57:53;;;;;;;6.15;5.35;;;16.50;99.90;;;;;;5152800;23;20028;-32
2023/08/02 10:00:19;;;;;;;8.10;5.07;;;16.50;99.90;;;;;;5072338;28;20046;-33
2023/08/02 10:02:47;;;;;;;7.88;4.85;;;16.60;99.90;;;;;;5004448;28;20127;-32
2023/08/02 10:05:16;;;;;;;8.77;5.35;;;16.60;99.90;;;;;;5003879;28;20038;-33
2023/08/02 10:07:51;;;;;;;6.28;4.97;;;16.60;99.90;;;;;;5038442;28;20119;-32
2023/08/02 10:10:25;;;;;;;7.35;4.88;;;16.60;99.90;;;;;;5104009;28;20310;-33
2023/08/02 10:13:08;;;;;;;5.53;4.28;;;16.70;99.90;;;;;;5089531;28;20273;-33
2023/08/02 10:15:36;;;;;;;4.85;3.90;;;16.80;99.90;;;;;;5107034;28;20074;-32
2023/08/02 10:18:04;;;;;;;5.13;3.83;;;16.80;99.90;;;;;;5109454;28;20044;-33
2023/08/02 10:20:30;;;;;;;5.50;4.00;;;16.80;99.90;;;;;;5109637;28;20043;-32
2023/08/02 10:23:05;;;;;;;5.55;4.03;;;16.80;99.90;;;;;;5111591;28;20051;-33
2023/08/02 10:25:35;;;;;;;4.80;4.18;;;16.90;99.90;;;;;;5111407;28;20047;-33
2023/08/02 10:28:13;;;;;;;3.50;3.20;;;17.00;99.90;;;;;;5111230;28;20043;-33
2023/08/02 10:30:40;;;;;;;3.85;3.13;;;17.00;99.90;;;;;;5075644;28;20323;-33
2023/08/02 10:33:20;;;;;;;2.88;2.65;;;17.10;99.90;;;;;;5092398;28;20051;-32
2023/08/02 10:36:01;;;;;;;3.88;3.05;;;17.00;99.90;;;;;;5110644;28;20035;-33
2023/08/02 10:38:39;;;;;;;3.67;2.80;;;17.00;99.90;;;;;;5111133;28;20393;-33
2023/08/02 10:41:07;;;;;;;3.25;2.97;;;17.00;99.90;;;;;;5110417;28;20040;-33
2023/08/02 10:43:53;;;;;;;2.97;2.67;;;17.00;99.90;;;;;;5111001;28;20043;-33
2023/08/02 10:46:38;;;;;;;3.20;2.70;;;17.00;99.90;;;;;;5110005;28;20123;-33
2023/08/02 10:49:09;;;;;;;3.40;3.10;;;17.10;99.90;;;;;;5110863;28;20453;-33
2023/08/02 10:51:39;;;;;;;3.00;2.70;;;17.10;99.90;;;;;;5109907;28;20071;-33
2023/08/02 10:54:16;;;;;;;3.40;2.83;;;17.20;99.90;;;;;;5110992;28;20434;-32
2023/08/02 10:56:51;;;;;;;2.88;2.67;;;17.20;99.90;;;;;;5109475;28;20043;-33
2023/08/02 10:59:23;;;;;;;4.32;3.85;;;17.30;99.90;;;;;;5110093;28;20323;-33
2023/08/02 11:02:07;;;;;;;2.53;2.33;;;17.30;99.90;;;;;;5110765;28;20042;-33
2023/08/02 11:04:37;;;;;;;3.17;2.40;;;17.30;99.90;;;;;;5108205;28;20035;-33
2023/08/02 11:07:19;;;;;;;2.20;2.10;;;17.20;99.90;;;;;;5103295;28;20038;-33
2023/08/02 11:09:46;;;;;;;2.47;2.28;;;17.20;99.90;;;;;;5098041;28;20504;-35
2023/08/02 11:12:14;;;;;;;2.28;2.08;;;17.20;99.90;;;;;;5089500;28;20116;-36
2023/08/02 11:14:42;;;;;;;2.42;2.22;;;17.20;99.90;;;;;;5096340;28;20456;-35
2023/08/02 11:17:10;;;;;;;2.30;2.10;;;17.30;99.90;;;;;;5092768;28;20036;-35
2023/08/02 11:19:36;;;;;;;2.65;2.10;;;17.30;99.90;;;;;;5076344;28;20071;-35
2023/08/02 11:22:02;;;;;;;3.42;1.98;;;17.40;99.90;;;;;;5093513;28;20116;-36
2023/08/02 11:24:28;;;;;;;4.10;1.80;;;17.60;99.90;;;;;;5087406;28;20040;-35
2023/08/02 11:27:01;;;;;;;1.75;1.65;;;17.60;99.90;;;;;;5096422;28;20036;-35
2023/08/02 11:29:59;;;;;;;4.47;2.03;;;17.70;99.90;;;;;;5076862;28;20396;-35
2023/08/02 11:32:28;;;;;;;3.13;2.10;;;17.90;99.90;;;;;;5061704;28;20047;-35
2023/08/02 11:34:54;;;;;;;2.95;2.08;;;17.80;99.90;;;;;;5099365;28;20035;-37
2023/08/02 11:37:22;;;;;;;2.13;1.70;;;17.90;99.90;;;;;;5103697;28;20035;-35
2023/08/02 11:39:52;;;;;;;2.00;1.90;;;17.90;99.90;;;;;;5097999;28;20110;-36
2023/08/02 11:42:17;;;;;;;2.45;1.92;;;18.00;99.90;;;;;;5109186;28;20051;-32
2023/08/02 11:44:50;;;;;;;2.15;1.95;;;18.10;99.90;;;;;;5107921;28;20054;-33
2023/08/02 11:47:16;;;;;;;16.45;15.18;;;18.30;99.90;;;;;;5110333;28;20123;-33
2023/08/02 11:50:42;;;;;;;5.07;4.78;;;18.40;99.90;;;;;;5110499;28;20071;-33
2023/08/02 11:56:55;;;;;;;8.82;8.10;;;18.80;99.90;;;;;;5095365;28;20556;-33
2023/08/02 11:59:26;;;;;;;5.40;5.03;;;19.00;99.90;;;;;;5110090;28;20044;-33
2023/08/02 12:01:51;;;;;;;9.23;8.57;;;19.30;99.90;;;;;;5110672;28;20036;-33
2023/08/02 12:04:48;;;;;;;;;;;;;;;;;;;;;
2023/08/02 12:07:52;;;;;;;4.32;3.88;;;20.00;99.90;;;;;;5106148;28;20054;-33
2023/08/02 12:10:53;;;;;;;22.02;20.35;;;20.60;99.90;;;;;;5109734;28;20112;-33
2023/08/02 12:14:07;;;;;;;;;;;;;;;;;;;;;
2023/08/02 12:16:43;;;;;;;26.73;25.08;;;22.00;99.90;;;;;;5098800;28;20050;-34
2023/08/02 12:19:40;;;;;;;12.02;11.05;;;22.70;99.90;;;;;;5096323;28;20502;-33
2023/08/02 12:22:06;;;;;;;12.15;11.45;;;23.00;99.90;;;;;;5094865;28;20055;-34
2023/08/02 12:24:32;;;;;;;26.13;24.35;;;23.30;99.90;;;;;;5114233;28;20418;-34
2023/08/02 12:31:03;;;;;;;7.70;6.95;;;23.10;99.90;;;;;;5011078;28;20052;-34
2023/08/02 12:34:02;;;;;;;;;;;;;;;;;;;;;
2023/08/02 12:37:13;;;;;;;4.57;4.18;;;22.90;99.90;;;;;;5113766;28;20046;-34
2023/08/02 12:40:40;;;;;;;4.15;3.85;;;22.50;99.90;;;;;;5091860;28;20092;-33
2023/08/02 12:43:37;;;;;;;4.80;3.95;;;22.40;99.90;;;;;;5112647;28;20522;-34
2023/08/02 12:46:06;;;;;;;3.90;3.60;;;22.60;99.90;;;;;;5068710;28;20054;-34
2023/08/02 12:48:38;;;;;;;3.95;3.65;;;23.30;99.90;;;;;;5114361;28;20039;-34
2023/08/02 12:51:14;;;;;;;4.00;3.80;;;24.10;99.90;;;;;;5113915;28;20116;-34
2023/08/02 12:53:40;;;;;;;4.25;3.88;;;24.00;99.90;;;;;;5109585;28;20051;-34
2023/08/02 12:56:06;;;;;;;4.07;3.58;;;23.60;99.90;;;;;;5114134;28;20055;-34
2023/08/02 12:58:35;;;;;;;3.70;3.47;;;23.40;99.90;;;;;;5113771;28;20112;-34
2023/08/02 13:01:01;;;;;;;3.60;3.30;;;23.10;99.90;;;;;;5110289;28;20040;-33
2023/08/02 13:03:27;;;;;;;3.60;3.40;;;22.90;99.90;;;;;;5109675;28;20031;-33
2023/08/02 13:05:52;;;;;;;3.80;3.50;;;22.80;99.90;;;;;;5111100;28;20204;-34
2023/08/02 13:08:18;;;;;;;3.33;3.03;;;22.80;99.90;;;;;;5111230;28;20027;-34
2023/08/02 13:10:44;;;;;;;3.50;3.20;;;23.00;99.90;;;;;;5111835;28;20031;-33
2023/08/02 13:13:10;;;;;;;6.53;3.72;;;23.40;99.90;;;;;;5112474;28;20047;-34
2023/08/02 13:15:36;;;;;;;2.83;2.47;;;24.20;99.90;;;;;;5112619;28;20040;-34
2023/08/02 13:18:02;;;;;;;2.78;2.28;;;25.20;99.90;;;;;;5112715;28;20111;-33
2023/08/02 13:20:31;;;;;;;3.40;3.00;;;25.60;99.90;;;;;;5112774;28;20092;-34
2023/08/02 13:22:57;;;;;;;3.38;3.08;;;25.30;99.90;;;;;;5113251;28;20059;-34
2023/08/02 13:25:23;;;;;;;3.78;3.47;;;24.70;99.90;;;;;;5113664;28;20032;-34
2023/08/02 13:27:48;;;;;;;10.60;9.50;;;24.30;99.90;;;;;;5113240;28;20036;-34
2023/08/02 13:30:14;;;;;;;18.23;15.80;;;24.10;99.90;;;;;;5112751;28;20055;-34
2023/08/02 13:32:40;;;;;;;22.40;18.65;;;24.30;99.90;;;;;;5094481;28;20050;-34
2023/08/02 13:35:09;;;;;;;6.25;5.63;;;24.50;99.90;;;;;;5094384;28;20161;-34
2023/08/02 13:37:38;;;;;;;4.07;3.63;;;24.40;99.90;;;;;;5077670;28;20094;-34
2023/08/02 13:40:27;;;;;;;4.00;3.60;;;24.20;99.90;;;;;;5112174;28;20113;-34
2023/08/02 13:42:54;;;;;;;4.85;4.35;;;23.80;99.90;;;;;;5112788;28;20028;-34
2023/08/02 13:45:28;;;;;;;8.90;8.18;;;23.30;99.90;;;;;;5112253;28;20073;-34
2023/08/02 13:48:04;;;;;;;4.55;4.18;;;22.90;99.90;;;;;;5106383;28;20110;-34
2023/08/02 13:50:32;;;;;;;3.15;2.95;;;22.40;99.90;;;;;;5091895;28;20118;-32